Time;durP1;ratioP1;P1;durP2;ratioP2;P2;SDS_P1;SDS_P2;PMS_P1;PMS_P2;Temp;Humidity;BMP_temperature;BMP_pressure;BME280_temperature;BME280_humidity;BME280_pressure;Samples;Min_cycle;Max_cycle;Signal;HPM_P1;HPM_P2
2022/03/22 00:00:18;;;;;;;177.75;65.93;;;;;;;;;;4994616;28;20494;-49
2022/03/22 00:02:45;;;;;;;109.45;53.35;;;;;;;;;;4994463;28;20034;-50
2022/03/22 00:05:11;;;;;;;85.40;45.38;;;;;;;;;;4994568;28;20048;-55
2022/03/22 00:07:37;;;;;;;87.72;42.72;;;;;;;;;;4994138;28;20026;-55
2022/03/22 00:10:04;;;;;;;96.95;45.75;;;;;;;;;;4994664;28;20031;-51
2022/03/22 00:12:30;;;;;;;94.95;43.40;;;;;;;;;;4994281;28;20032;-52
2022/03/22 00:14:57;;;;;;;80.43;40.15;;;;;;;;;;4994114;28;20068;-50
2022/03/22 00:17:23;;;;;;;77.40;38.50;;;;;;;;;;4994162;28;20033;-49
2022/03/22 00:19:49;;;;;;;72.85;36.78;;;;;;;;;;4994134;28;20034;-53
2022/03/22 00:22:15;;;;;;;90.18;42.50;;;;;;;;;;4994482;28;20025;-48
2022/03/22 00:24:41;;;;;;;75.25;39.72;;;;;;;;;;4994071;28;20494;-51
2022/03/22 00:27:08;;;;;;;58.38;29.08;;;;;;;;;;4993855;28;20035;-49
2022/03/22 00:29:34;;;;;;;66.10;32.38;;;;;;;;;;4994278;28;20088;-48
2022/03/22 00:32:00;;;;;;;55.88;28.67;;;;;;;;;;4994388;28;20027;-49
2022/03/22 00:34:26;;;;;;;60.25;29.05;;;;;;;;;;4993967;28;20027;-51
2022/03/22 00:36:56;;;;;;;53.97;28.15;;;;;;;;;;4994020;28;20101;-50
2022/03/22 00:39:22;;;;;;;54.13;28.50;;;;;;;;;;4994442;28;20037;-51
2022/03/22 00:41:48;;;;;;;50.75;25.88;;;;;;;;;;4994273;28;20034;-52
2022/03/22 00:44:14;;;;;;;52.55;26.33;;;;;;;;;;4994032;28;20064;-51
2022/03/22 00:46:40;;;;;;;54.97;26.90;;;;;;;;;;4993970;28;20037;-54
2022/03/22 00:49:07;;;;;;;53.20;26.90;;;;;;;;;;4993492;28;20057;-52
2022/03/22 00:51:33;;;;;;;57.50;27.50;;;;;;;;;;4993939;28;20416;-54
2022/03/22 00:54:02;;;;;;;57.72;27.20;;;;;;;;;;4994088;28;20026;-50
2022/03/22 00:56:31;;;;;;;67.63;32.47;;;;;;;;;;4993786;28;20043;-52
2022/03/22 01:01:42;;;;;;;58.65;29.52;;;;;;;;;;4993876;28;20080;-53
2022/03/22 01:04:09;;;;;;;63.42;31.73;;;;;;;;;;4993677;28;20073;-53
2022/03/22 01:06:35;;;;;;;66.22;32.22;;;;;;;;;;4993975;28;20031;-50
2022/03/22 01:09:01;;;;;;;69.65;33.95;;;;;;;;;;4996610;28;20037;-52
2022/03/22 01:11:27;;;;;;;54.97;28.65;;;;;;;;;;4997606;28;20464;-50
2022/03/22 01:13:55;;;;;;;63.42;27.50;;;;;;;;;;4998097;28;20120;-52
2022/03/22 01:16:21;;;;;;;53.15;27.08;;;;;;;;;;4997492;28;20026;-56
2022/03/22 01:18:48;;;;;;;68.85;32.05;;;;;;;;;;4998025;28;20023;-51
2022/03/22 01:21:14;;;;;;;52.63;24.35;;;;;;;;;;4997745;28;20053;-50
2022/03/22 01:23:40;;;;;;;52.63;25.80;;;;;;;;;;4997382;28;20029;-51
2022/03/22 01:26:06;;;;;;;55.40;26.58;;;;;;;;;;4997572;28;20041;-53
2022/03/22 01:28:32;;;;;;;56.85;26.90;;;;;;;;;;4997825;28;20031;-52
2022/03/22 01:30:58;;;;;;;51.20;25.67;;;;;;;;;;4997359;28;20437;-49
2022/03/22 01:33:24;;;;;;;50.60;26.65;;;;;;;;;;4997230;28;20369;-49
2022/03/22 01:35:51;;;;;;;65.90;33.33;;;;;;;;;;4997339;28;20029;-51
2022/03/22 01:38:17;;;;;;;65.05;30.92;;;;;;;;;;4996938;28;20032;-52
2022/03/22 01:40:44;;;;;;;61.28;29.70;;;;;;;;;;4997346;28;20030;-48
2022/03/22 01:43:10;;;;;;;63.20;32.05;;;;;;;;;;4997570;28;20050;-49
2022/03/22 01:45:37;;;;;;;67.55;33.13;;;;;;;;;;4996608;28;20026;-50
2022/03/22 01:48:04;;;;;;;73.72;33.15;;;;;;;;;;4997593;28;20032;-53
2022/03/22 01:50:30;;;;;;;68.07;30.25;;;;;;;;;;4996903;28;20041;-47
2022/03/22 01:52:58;;;;;;;72.20;33.72;;;;;;;;;;4996871;28;20023;-49
2022/03/22 01:55:25;;;;;;;80.10;34.15;;;;;;;;;;4997199;28;20026;-49
2022/03/22 01:57:51;;;;;;;78.07;36.05;;;;;;;;;;4996425;28;20046;-51
2022/03/22 02:00:18;;;;;;;71.97;37.45;;;;;;;;;;4997010;28;20072;-50
2022/03/22 02:08:18;;;;;;;68.90;34.22;;;;;;;;;;4996907;28;20057;-53
2022/03/22 02:10:44;;;;;;;57.30;30.65;;;;;;;;;;4996700;28;20073;-47
2022/03/22 02:13:10;;;;;;;63.45;28.60;;;;;;;;;;4996473;28;20022;-49
2022/03/22 02:15:36;;;;;;;60.95;27.80;;;;;;;;;;4996392;28;20050;-51
2022/03/22 02:18:02;;;;;;;58.20;28.25;;;;;;;;;;4996468;28;20073;-51
2022/03/22 02:20:29;;;;;;;51.97;27.20;;;;;;;;;;4995479;28;20501;-48
2022/03/22 02:23:05;;;;;;;62.10;29.75;;;;;;;;;;4996316;28;20050;-48
2022/03/22 02:25:32;;;;;;;62.53;31.08;;;;;;;;;;4996342;28;20026;-51
2022/03/22 02:27:58;;;;;;;62.70;32.17;;;;;;;;;;4995874;28;20118;-49
2022/03/22 02:30:25;;;;;;;62.40;31.08;;;;;;;;;;4996071;28;20040;-50
2022/03/22 02:32:51;;;;;;;58.65;30.08;;;;;;;;;;4996017;28;20027;-50
2022/03/22 02:35:18;;;;;;;61.53;29.88;;;;;;;;;;4996686;28;20018;-49
2022/03/22 02:37:44;;;;;;;61.85;32.78;;;;;;;;;;4996012;28;20031;-50
2022/03/22 02:40:13;;;;;;;77.25;37.83;;;;;;;;;;4995499;28;20439;-48
2022/03/22 02:42:41;;;;;;;80.53;38.17;;;;;;;;;;4995952;28;20049;-49
2022/03/22 02:45:07;;;;;;;79.75;39.97;;;;;;;;;;4995894;28;20033;-46
2022/03/22 02:47:34;;;;;;;81.03;39.83;;;;;;;;;;4996458;28;20112;-49
2022/03/22 02:50:00;;;;;;;84.10;40.95;;;;;;;;;;4995903;28;20037;-49
2022/03/22 02:52:27;;;;;;;82.43;40.72;;;;;;;;;;4996052;28;20073;-49
2022/03/22 02:54:53;;;;;;;80.20;40.35;;;;;;;;;;4995318;28;20530;-51
2022/03/22 02:57:19;;;;;;;158.90;70.40;;;;;;;;;;4995803;28;20046;-47
2022/03/22 02:59:48;;;;;;;103.78;47.97;;;;;;;;;;4995987;28;20034;-52
2022/03/22 03:02:14;;;;;;;89.13;41.20;;;;;;;;;;4995319;28;20026;-50
2022/03/22 03:04:40;;;;;;;87.35;44.22;;;;;;;;;;4995543;28;20383;-52
2022/03/22 03:07:07;;;;;;;87.00;41.95;;;;;;;;;;4995420;28;20483;-50
2022/03/22 03:09:33;;;;;;;90.43;42.38;;;;;;;;;;4995335;28;20031;-53
2022/03/22 03:11:59;;;;;;;85.85;40.85;;;;;;;;;;4995661;28;20364;-52
2022/03/22 03:14:38;;;;;;;82.97;41.88;;;;;;;;;;4995577;28;20026;-53
2022/03/22 03:17:05;;;;;;;87.93;43.13;;;;;;;;;;4995292;28;20033;-51
2022/03/22 03:19:31;;;;;;;88.47;43.03;;;;;;;;;;4995528;28;20026;-49
2022/03/22 03:21:57;;;;;;;91.32;40.53;;;;;;;;;;4995121;28;20026;-49
2022/03/22 03:24:23;;;;;;;77.93;36.75;;;;;;;;;;4995285;28;20407;-49
2022/03/22 03:26:50;;;;;;;77.13;36.88;;;;;;;;;;4995040;28;20403;-48
2022/03/22 03:29:16;;;;;;;81.88;38.72;;;;;;;;;;4994644;28;20048;-52
2022/03/22 03:31:42;;;;;;;87.30;43.70;;;;;;;;;;4994019;28;20539;-49
2022/03/22 03:34:08;;;;;;;77.55;37.70;;;;;;;;;;4995516;28;20345;-47
2022/03/22 03:36:35;;;;;;;68.00;34.25;;;;;;;;;;4994590;28;20396;-50
2022/03/22 03:39:03;;;;;;;76.90;36.05;;;;;;;;;;4995044;28;20030;-47
2022/03/22 03:47:05;;;;;;;78.95;38.38;;;;;;;;;;4994019;28;20118;-49
2022/03/22 03:49:34;;;;;;;80.07;36.55;;;;;;;;;;4995394;28;20077;-49
2022/03/22 03:52:00;;;;;;;77.95;36.50;;;;;;;;;;4993912;28;20023;-50
2022/03/22 03:54:27;;;;;;;72.15;34.88;;;;;;;;;;4994830;28;20022;-49
2022/03/22 03:56:53;;;;;;;71.25;34.20;;;;;;;;;;4994419;28;20453;-48
2022/03/22 03:59:19;;;;;;;71.30;34.20;;;;;;;;;;4994363;28;20030;-49
2022/03/22 04:01:45;;;;;;;67.60;33.58;;;;;;;;;;4993447;28;20023;-53
2022/03/22 04:04:11;;;;;;;58.22;28.80;;;;;;;;;;4993884;28;20530;-50
2022/03/22 04:06:37;;;;;;;69.90;35.30;;;;;;;;;;4994912;28;20080;-47
2022/03/22 04:09:03;;;;;;;58.30;28.05;;;;;;;;;;4994378;28;20502;-48
2022/03/22 04:11:30;;;;;;;52.45;27.33;;;;;;;;;;4994352;28;20106;-49
2022/03/22 04:13:56;;;;;;;57.05;26.92;;;;;;;;;;4994637;28;20041;-53
2022/03/22 04:16:22;;;;;;;51.15;24.95;;;;;;;;;;4994188;28;20455;-47
2022/03/22 04:18:50;;;;;;;80.13;38.28;;;;;;;;;;4994207;28;20473;-47
2022/03/22 04:21:16;;;;;;;88.05;40.08;;;;;;;;;;4994386;28;20065;-49
2022/03/22 04:23:46;;;;;;;63.20;29.73;;;;;;;;;;4994222;28;20259;-54
2022/03/22 04:26:14;;;;;;;53.55;26.00;;;;;;;;;;4993786;28;20050;-51
2022/03/22 04:34:09;;;;;;;61.60;30.02;;;;;;;;;;4993923;28;20042;-54
2022/03/22 04:36:36;;;;;;;63.13;28.60;;;;;;;;;;4993901;28;20034;-53
2022/03/22 04:39:02;;;;;;;66.45;28.38;;;;;;;;;;4993832;28;20026;-54
2022/03/22 04:41:29;;;;;;;49.63;22.30;;;;;;;;;;4993925;28;20030;-53
2022/03/22 04:43:55;;;;;;;47.70;22.83;;;;;;;;;;4996804;28;20108;-54
2022/03/22 04:46:21;;;;;;;48.00;22.60;;;;;;;;;;4998040;28;20026;-52
2022/03/22 04:48:48;;;;;;;50.28;23.27;;;;;;;;;;4998130;28;20108;-53
2022/03/22 04:56:48;;;;;;;87.22;40.28;;;;;;;;;;4997791;28;20061;-49
2022/03/22 04:59:15;;;;;;;108.05;45.08;;;;;;;;;;4996590;28;20025;-54
2022/03/22 05:01:42;;;;;;;81.65;37.65;;;;;;;;;;4997544;28;20023;-53
2022/03/22 05:04:09;;;;;;;75.85;33.80;;;;;;;;;;4997677;28;20034;-53
2022/03/22 05:06:37;;;;;;;77.22;33.75;;;;;;;;;;4997894;28;20030;-52
2022/03/22 05:09:07;;;;;;;69.63;31.10;;;;;;;;;;4997363;28;20106;-50
2022/03/22 05:11:33;;;;;;;137.55;54.10;;;;;;;;;;4997495;28;20042;-48
2022/03/22 05:13:59;;;;;;;105.97;44.88;;;;;;;;;;4997344;28;20032;-50
2022/03/22 05:16:30;;;;;;;86.38;38.50;;;;;;;;;;4996983;28;20023;-50
2022/03/22 05:19:05;;;;;;;66.63;30.10;;;;;;;;;;4994355;28;20134;-54
2022/03/22 05:21:32;;;;;;;72.90;32.78;;;;;;;;;;4995039;28;20472;-50
2022/03/22 05:23:58;;;;;;;90.00;36.42;;;;;;;;;;4995132;28;20028;-52
2022/03/22 05:26:26;;;;;;;84.72;37.83;;;;;;;;;;4995707;28;20470;-48
2022/03/22 05:28:52;;;;;;;85.43;35.50;;;;;;;;;;4996544;28;20029;-49
2022/03/22 05:31:21;;;;;;;81.65;34.45;;;;;;;;;;4996808;28;20074;-48
2022/03/22 05:33:47;;;;;;;90.18;42.35;;;;;;;;;;4995868;28;20105;-48
2022/03/22 05:36:13;;;;;;;71.95;33.80;;;;;;;;;;4996417;28;20015;-50
2022/03/22 05:38:39;;;;;;;87.95;43.45;;;;;;;;;;4996671;28;20033;-47
2022/03/22 05:41:07;;;;;;;84.80;39.88;;;;;;;;;;4996762;28;20035;-51
2022/03/22 05:43:33;;;;;;;79.07;38.70;;;;;;;;;;4996372;28;20044;-50
2022/03/22 05:45:59;;;;;;;72.75;34.20;;;;;;;;;;4996545;28;20026;-55
2022/03/22 05:48:26;;;;;;;63.00;31.88;;;;;;;;;;4996865;28;20014;-52
2022/03/22 05:50:52;;;;;;;58.78;31.77;;;;;;;;;;4996205;28;20065;-51
2022/03/22 05:53:18;;;;;;;65.40;31.15;;;;;;;;;;4996891;28;20101;-52
2022/03/22 05:55:45;;;;;;;70.28;37.55;;;;;;;;;;4996071;28;20034;-52
2022/03/22 05:58:11;;;;;;;64.35;35.28;;;;;;;;;;4997077;28;20442;-52
2022/03/22 06:00:37;;;;;;;71.45;36.38;;;;;;;;;;4997027;28;20054;-49
2022/03/22 06:03:04;;;;;;;76.43;41.25;;;;;;;;;;4996783;28;20026;-51
2022/03/22 06:05:30;;;;;;;77.75;37.65;;;;;;;;;;4996715;28;20023;-49
2022/03/22 06:07:57;;;;;;;71.88;39.35;;;;;;;;;;4996490;28;20056;-51
2022/03/22 06:10:23;;;;;;;80.78;38.58;;;;;;;;;;4996235;28;20034;-54
2022/03/22 06:12:51;;;;;;;77.90;38.47;;;;;;;;;;4996500;28;20018;-53
2022/03/22 06:15:24;;;;;;;84.65;39.63;;;;;;;;;;4996690;28;20027;-49
2022/03/22 06:17:56;;;;;;;71.75;37.63;;;;;;;;;;4996706;28;20023;-51
2022/03/22 06:20:23;;;;;;;75.75;39.88;;;;;;;;;;4997187;28;20105;-54
2022/03/22 06:22:50;;;;;;;306.13;120.75;;;;;;;;;;4996293;28;20022;-52
2022/03/22 06:25:17;;;;;;;101.72;45.70;;;;;;;;;;4996343;28;20018;-54
2022/03/22 06:27:44;;;;;;;75.88;38.75;;;;;;;;;;4996581;28;20033;-52
2022/03/22 06:30:11;;;;;;;75.70;37.65;;;;;;;;;;4996654;28;20553;-52
2022/03/22 06:32:45;;;;;;;68.07;35.35;;;;;;;;;;4995746;28;20037;-54
2022/03/22 06:35:11;;;;;;;64.38;32.15;;;;;;;;;;4996708;28;20026;-53
2022/03/22 06:37:38;;;;;;;61.92;31.83;;;;;;;;;;4996411;28;20553;-51
2022/03/22 06:40:05;;;;;;;57.47;31.27;;;;;;;;;;4996096;28;20027;-53
2022/03/22 06:42:32;;;;;;;56.72;29.35;;;;;;;;;;4996010;28;20480;-52
2022/03/22 06:44:58;;;;;;;55.40;29.08;;;;;;;;;;4996124;28;20022;-53
2022/03/22 06:47:24;;;;;;;55.88;28.75;;;;;;;;;;4996206;28;20048;-51
2022/03/22 06:49:50;;;;;;;59.85;29.17;;;;;;;;;;4996016;28;20040;-53
2022/03/22 06:52:16;;;;;;;57.53;29.15;;;;;;;;;;4995466;28;20419;-51
2022/03/22 06:54:42;;;;;;;56.10;26.30;;;;;;;;;;4995623;28;20023;-53
2022/03/22 06:57:08;;;;;;;50.63;24.92;;;;;;;;;;4995400;28;20054;-51
2022/03/22 06:59:35;;;;;;;49.65;26.48;;;;;;;;;;4994489;28;20053;-53
2022/03/22 07:02:01;;;;;;;54.78;26.40;;;;;;;;;;4995857;28;20088;-53
2022/03/22 07:04:27;;;;;;;53.30;25.95;;;;;;;;;;4995066;28;20411;-48
2022/03/22 07:06:54;;;;;;;49.38;25.05;;;;;;;;;;4995359;28;20018;-51
2022/03/22 07:09:22;;;;;;;44.83;24.67;;;;;;;;;;4995140;28;20443;-51
2022/03/22 07:11:52;;;;;;;43.75;24.58;;;;;;;;;;4994292;28;20023;-49
2022/03/22 07:14:19;;;;;;;46.30;25.30;;;;;;;;;;4994078;28;20026;-49
2022/03/22 07:16:47;;;;;;;48.90;25.63;;;;;;;;;;4994793;28;20036;-50
2022/03/22 07:19:16;;;;;;;55.20;27.45;;;;;;;;;;4995041;28;20022;-52
2022/03/22 07:21:43;;;;;;;47.38;24.98;;;;;;;;;;4994761;28;20102;-50
2022/03/22 07:24:10;;;;;;;82.85;37.05;;;;;;;;;;4995218;28;20029;-51
2022/03/22 07:26:36;;;;;;;45.33;23.50;;;;;;;;;;4995140;28;20026;-48
2022/03/22 07:29:02;;;;;;;42.35;22.48;;;;;;;;;;4995111;28;20040;-46
2022/03/22 07:31:29;;;;;;;50.90;28.02;;;;;;;;;;4995461;28;20548;-49
2022/03/22 07:33:56;;;;;;;50.22;26.98;;;;;;;;;;4994898;28;20077;-48
2022/03/22 07:36:22;;;;;;;42.83;24.73;;;;;;;;;;4994889;28;20069;-49
2022/03/22 07:38:48;;;;;;;41.40;23.67;;;;;;;;;;4995197;28;20026;-53
2022/03/22 07:41:14;;;;;;;44.88;24.90;;;;;;;;;;4994788;28;20042;-49
2022/03/22 07:43:41;;;;;;;44.20;23.98;;;;;;;;;;4995345;28;20015;-53
2022/03/22 07:46:10;;;;;;;45.70;24.65;;;;;;;;;;4995507;28;20030;-50
2022/03/22 07:48:36;;;;;;;39.30;21.42;;;;;;;;;;4994742;28;20018;-51
2022/03/22 07:53:47;;;;;;;46.17;22.83;;;;;;;;;;4995069;28;20186;-52
2022/03/22 07:56:13;;;;;;;42.53;23.65;;;;;;;;;;4994394;28;20022;-50
2022/03/22 07:58:39;;;;;;;40.53;20.63;;;;;;;;;;4994934;28;20471;-48
2022/03/22 08:01:05;;;;;;;45.65;22.50;;;;;;;;;;4994678;28;20042;-51
2022/03/22 08:03:31;;;;;;;35.35;20.70;;;;;;;;;;4994461;28;20014;-48
2022/03/22 08:06:00;;;;;;;37.60;21.17;;;;;;;;;;4994704;28;20022;-51
2022/03/22 08:08:26;;;;;;;38.35;21.00;;;;;;;;;;4995187;28;20018;-48
2022/03/22 08:10:52;;;;;;;37.75;21.60;;;;;;;;;;4994201;28;20602;-53
2022/03/22 08:13:18;;;;;;;38.42;21.75;;;;;;;;;;4994627;28;20037;-50
2022/03/22 08:15:45;;;;;;;36.00;20.60;;;;;;;;;;4994111;28;20033;-51
2022/03/22 08:18:11;;;;;;;34.60;20.55;;;;;;;;;;4993612;28;20019;-52
2022/03/22 08:20:37;;;;;;;40.80;20.63;;;;;;;;;;4994431;28;20112;-52
2022/03/22 08:23:04;;;;;;;35.10;19.50;;;;;;;;;;4994426;28;20429;-49
2022/03/22 08:25:31;;;;;;;35.17;18.63;;;;;;;;;;4992566;28;20030;-50
2022/03/22 08:28:02;;;;;;;29.73;18.15;;;;;;;;;;4994451;28;20077;-51
2022/03/22 08:30:28;;;;;;;34.75;18.38;;;;;;;;;;4993374;28;20030;-49
2022/03/22 08:32:55;;;;;;;32.40;16.90;;;;;;;;;;4994087;28;20480;-53
2022/03/22 08:35:23;;;;;;;37.92;17.65;;;;;;;;;;4993047;28;20109;-48
2022/03/22 08:37:50;;;;;;;51.85;22.98;;;;;;;;;;4993670;28;20030;-48
2022/03/22 08:40:16;;;;;;;28.30;15.95;;;;;;;;;;4994306;28;20022;-52
2022/03/22 08:42:46;;;;;;;25.80;15.05;;;;;;;;;;4994048;28;20022;-52
2022/03/22 08:45:23;;;;;;;28.92;16.70;;;;;;;;;;4993535;28;20391;-50
2022/03/22 08:47:50;;;;;;;33.67;18.23;;;;;;;;;;4991965;28;20037;-48
2022/03/22 08:50:18;;;;;;;30.40;17.02;;;;;;;;;;4993090;28;20406;-50
2022/03/22 08:52:44;;;;;;;33.75;17.88;;;;;;;;;;4993419;28;20023;-48
2022/03/22 08:55:15;;;;;;;26.23;15.98;;;;;;;;;;4993469;28;20413;-51
2022/03/22 08:57:41;;;;;;;35.13;17.35;;;;;;;;;;4993647;28;20043;-50
2022/03/22 09:00:11;;;;;;;30.35;17.83;;;;;;;;;;4993750;28;20026;-51
2022/03/22 09:02:37;;;;;;;30.75;16.35;;;;;;;;;;4994761;28;20022;-51
2022/03/22 09:07:50;;;;;;;36.50;20.98;;;;;;;;;;4994101;28;20487;-53
2022/03/22 09:10:18;;;;;;;29.02;16.23;;;;;;;;;;4993655;28;20543;-50
2022/03/22 09:12:44;;;;;;;26.73;15.75;;;;;;;;;;4993657;28;20085;-52
2022/03/22 09:15:11;;;;;;;47.97;24.92;;;;;;;;;;4994222;28;20023;-48
2022/03/22 09:17:37;;;;;;;30.38;15.77;;;;;;;;;;4994384;28;20105;-52
2022/03/22 09:20:04;;;;;;;23.23;15.23;;;;;;;;;;4993392;28;20391;-51
2022/03/22 09:22:30;;;;;;;29.42;15.18;;;;;;;;;;4993917;28;20083;-50
2022/03/22 09:24:56;;;;;;;32.78;16.73;;;;;;;;;;4993597;28;20022;-56
2022/03/22 09:27:23;;;;;;;52.17;25.52;;;;;;;;;;4993521;28;20022;-51
2022/03/22 09:29:50;;;;;;;39.70;18.73;;;;;;;;;;4996650;28;20035;-54
2022/03/22 09:32:16;;;;;;;26.95;16.33;;;;;;;;;;4997554;28;20521;-54
2022/03/22 09:34:43;;;;;;;27.63;15.98;;;;;;;;;;4997094;28;20022;-52
2022/03/22 09:37:09;;;;;;;28.80;15.52;;;;;;;;;;4997395;28;20037;-55
2022/03/22 09:39:36;;;;;;;30.80;17.65;;;;;;;;;;4997056;28;20073;-55
2022/03/22 09:42:03;;;;;;;29.30;16.35;;;;;;;;;;4997118;28;20026;-53
2022/03/22 09:44:31;;;;;;;30.08;17.52;;;;;;;;;;4997362;28;20029;-54
2022/03/22 09:46:57;;;;;;;27.67;16.30;;;;;;;;;;4996966;28;20041;-53
2022/03/22 09:49:23;;;;;;;25.83;15.98;;;;;;;;;;4997125;28;20026;-53
2022/03/22 09:51:49;;;;;;;78.15;30.67;;;;;;;;;;4996934;28;20117;-54
2022/03/22 09:54:17;;;;;;;42.65;21.20;;;;;;;;;;4996702;28;20041;-52
2022/03/22 09:56:44;;;;;;;26.00;16.15;;;;;;;;;;4996757;28;20400;-54
2022/03/22 09:59:11;;;;;;;24.70;16.60;;;;;;;;;;4997379;28;20022;-49
2022/03/22 10:01:37;;;;;;;33.20;17.50;;;;;;;;;;4996561;28;20022;-50
2022/03/22 10:04:06;;;;;;;28.08;16.27;;;;;;;;;;4997240;28;20098;-50
2022/03/22 10:06:33;;;;;;;27.88;15.48;;;;;;;;;;4996883;28;20030;-52
2022/03/22 10:08:59;;;;;;;26.02;16.00;;;;;;;;;;4996115;28;20038;-47
2022/03/22 10:11:39;;;;;;;28.83;16.60;;;;;;;;;;4996948;28;20046;-52
2022/03/22 10:14:08;;;;;;;36.40;18.55;;;;;;;;;;4996966;28;20041;-51
2022/03/22 10:16:45;;;;;;;29.88;15.98;;;;;;;;;;4996388;28;20041;-51
2022/03/22 10:19:18;;;;;;;28.73;18.10;;;;;;;;;;4996437;28;20026;-53
2022/03/22 10:21:45;;;;;;;28.40;15.82;;;;;;;;;;4996102;28;20050;-50
2022/03/22 10:24:13;;;;;;;29.42;15.93;;;;;;;;;;4995983;28;20105;-52
2022/03/22 10:26:40;;;;;;;23.58;15.90;;;;;;;;;;4996557;28;20367;-51
2022/03/22 10:29:07;;;;;;;23.65;15.35;;;;;;;;;;4996155;28;20026;-53
2022/03/22 10:31:34;;;;;;;25.58;16.10;;;;;;;;;;4995748;28;20034;-49
2022/03/22 10:34:00;;;;;;;27.10;16.23;;;;;;;;;;4996434;28;20490;-49
2022/03/22 10:36:26;;;;;;;24.55;15.88;;;;;;;;;;4996083;28;20468;-53
2022/03/22 10:38:57;;;;;;;28.67;16.25;;;;;;;;;;4995977;28;20387;-53
2022/03/22 10:41:27;;;;;;;22.23;15.13;;;;;;;;;;4995874;28;20117;-51
2022/03/22 10:44:10;;;;;;;23.50;14.65;;;;;;;;;;4996400;28;20113;-52
2022/03/22 10:46:38;;;;;;;22.63;15.15;;;;;;;;;;4996184;28;20031;-51
2022/03/22 10:49:09;;;;;;;23.65;14.65;;;;;;;;;;4996128;28;20073;-50
2022/03/22 10:51:37;;;;;;;21.80;14.52;;;;;;;;;;4995504;28;20030;-51
2022/03/22 10:54:04;;;;;;;29.00;14.70;;;;;;;;;;4995993;28;20022;-51
2022/03/22 10:56:30;;;;;;;26.15;16.40;;;;;;;;;;4995676;28;20439;-51
2022/03/22 10:58:59;;;;;;;23.02;14.18;;;;;;;;;;4995673;28;20023;-51
2022/03/22 11:01:25;;;;;;;24.85;14.65;;;;;;;;;;4995910;28;20059;-51
2022/03/22 11:03:56;;;;;;;24.45;14.80;;;;;;;;;;4995493;28;20085;-50
2022/03/22 11:06:23;;;;;;;27.35;15.50;;;;;;;;;;4995844;28;20033;-52
2022/03/22 11:08:49;;;;;;;19.85;14.30;;;;;;;;;;4995668;28;20035;-47
2022/03/22 11:11:15;;;;;;;26.20;17.80;;;;;;;;;;4995389;28;20104;-50
2022/03/22 11:13:42;;;;;;;21.00;14.93;;;;;;;;;;4996158;28;20034;-47
2022/03/22 11:16:08;;;;;;;21.45;13.35;;;;;;;;;;4995382;28;20072;-50
2022/03/22 11:18:35;;;;;;;21.90;13.98;;;;;;;;;;4995211;28;20029;-54
2022/03/22 11:21:03;;;;;;;23.30;13.30;;;;;;;;;;4996045;28;20038;-52
2022/03/22 11:23:33;;;;;;;29.85;20.00;;;;;;;;;;4995430;28;20153;-50
2022/03/22 11:26:08;;;;;;;18.63;12.23;;;;;;;;;;4995118;28;20046;-49
2022/03/22 11:28:35;;;;;;;21.75;12.40;;;;;;;;;;4995353;28;20153;-50
2022/03/22 11:31:02;;;;;;;17.77;12.35;;;;;;;;;;4994928;28;20388;-50
2022/03/22 11:36:15;;;;;;;19.08;12.32;;;;;;;;;;4995651;28;20041;-51
2022/03/22 11:38:41;;;;;;;18.38;11.82;;;;;;;;;;4994758;28;20114;-52
2022/03/22 11:44:23;;;;;;;16.88;12.15;;;;;;;;;;4989598;28;20109;-49
2022/03/22 11:47:00;;;;;;;16.63;12.25;;;;;;;;;;4994776;28;20037;-47
2022/03/22 11:49:27;;;;;;;21.40;12.88;;;;;;;;;;4995086;28;20026;-48
2022/03/22 11:51:57;;;;;;;23.60;13.32;;;;;;;;;;4994867;28;20026;-50
2022/03/22 11:54:25;;;;;;;19.58;11.75;;;;;;;;;;4994346;28;20027;-48
2022/03/22 11:56:52;;;;;;;16.45;11.07;;;;;;;;;;4994611;28;20057;-51
2022/03/22 11:59:19;;;;;;;19.13;11.35;;;;;;;;;;4994907;28;20109;-53
2022/03/22 12:01:58;;;;;;;15.90;11.43;;;;;;;;;;4994427;28;20030;-50
2022/03/22 12:04:44;;;;;;;16.02;11.10;;;;;;;;;;4995060;28;20414;-49
2022/03/22 12:07:11;;;;;;;15.75;11.25;;;;;;;;;;4994965;28;20041;-52
2022/03/22 12:09:42;;;;;;;17.27;11.05;;;;;;;;;;4994590;28;20081;-50
2022/03/22 12:12:09;;;;;;;;;;;;;;;;;;4995088;28;20026;-48
2022/03/22 12:14:37;;;;;;;17.90;12.05;;;;;;;;;;4994362;28;19968;-50
2022/03/22 12:17:04;;;;;;;15.55;11.75;;;;;;;;;;4994247;28;20041;-50
2022/03/22 12:19:31;;;;;;;13.98;10.88;;;;;;;;;;4995033;28;20034;-46
2022/03/22 12:22:00;;;;;;;14.60;11.82;;;;;;;;;;4993876;28;20028;-49
2022/03/22 12:24:30;;;;;;;16.83;12.15;;;;;;;;;;4994478;28;20026;-53
2022/03/22 12:26:58;;;;;;;18.65;12.85;;;;;;;;;;4994799;28;20105;-52
2022/03/22 12:29:25;;;;;;;18.58;11.75;;;;;;;;;;4994087;28;20065;-54
2022/03/22 12:31:52;;;;;;;18.95;12.35;;;;;;;;;;4994377;28;20042;-52
2022/03/22 12:34:18;;;;;;;16.23;10.93;;;;;;;;;;4994376;28;20037;-51
2022/03/22 12:36:45;;;;;;;18.00;11.63;;;;;;;;;;4994080;28;20032;-53
2022/03/22 12:39:12;;;;;;;17.45;11.18;;;;;;;;;;4994308;28;20033;-47
2022/03/22 12:41:38;;;;;;;13.88;10.27;;;;;;;;;;4994356;28;20030;-48
2022/03/22 12:44:07;;;;;;;12.77;9.75;;;;;;;;;;4993688;28;20101;-50
2022/03/22 12:46:33;;;;;;;15.55;10.23;;;;;;;;;;4994328;28;20109;-51
2022/03/22 12:48:59;;;;;;;17.40;11.15;;;;;;;;;;4993801;28;20035;-50
2022/03/22 12:51:26;;;;;;;16.27;11.02;;;;;;;;;;4994077;28;20034;-52
2022/03/22 12:53:55;;;;;;;15.05;9.07;;;;;;;;;;4993001;28;20029;-50
2022/03/22 12:56:21;;;;;;;16.77;10.45;;;;;;;;;;4993367;28;20415;-52
2022/03/22 12:58:49;;;;;;;11.23;9.30;;;;;;;;;;4993995;28;20022;-48
2022/03/22 13:01:15;;;;;;;15.98;9.82;;;;;;;;;;4994409;28;20054;-55
2022/03/22 13:03:42;;;;;;;16.98;10.70;;;;;;;;;;4994413;28;20029;-46
2022/03/22 13:06:09;;;;;;;19.17;10.05;;;;;;;;;;4998030;28;20030;-49
2022/03/22 13:11:26;;;;;;;15.50;10.68;;;;;;;;;;4997388;28;20518;-47
2022/03/22 13:16:38;;;;;;;14.90;10.52;;;;;;;;;;4997906;28;20510;-54
2022/03/22 13:19:06;;;;;;;18.58;10.93;;;;;;;;;;4997232;28;20026;-52
2022/03/22 13:21:33;;;;;;;15.45;10.00;;;;;;;;;;4997749;28;20041;-51
2022/03/22 13:24:11;;;;;;;17.02;10.93;;;;;;;;;;4997384;28;20034;-52
2022/03/22 13:26:39;;;;;;;16.67;11.38;;;;;;;;;;4995581;28;20077;-48
2022/03/22 13:29:12;;;;;;;17.83;11.07;;;;;;;;;;4996308;28;20022;-52
2022/03/22 13:31:38;;;;;;;16.90;11.13;;;;;;;;;;4996606;28;20034;-49
2022/03/22 13:34:04;;;;;;;17.20;11.90;;;;;;;;;;4997200;28;20101;-49
2022/03/22 13:36:30;;;;;;;62.50;29.80;;;;;;;;;;4997343;28;20037;-50
2022/03/22 13:38:58;;;;;;;35.08;18.02;;;;;;;;;;4996752;28;20549;-55
2022/03/22 13:41:25;;;;;;;22.63;14.57;;;;;;;;;;4996926;28;20102;-51
2022/03/22 13:43:51;;;;;;;19.05;13.45;;;;;;;;;;4997074;28;20026;-53
2022/03/22 13:46:18;;;;;;;21.90;12.05;;;;;;;;;;4996939;28;20077;-51
2022/03/22 13:48:49;;;;;;;21.85;13.60;;;;;;;;;;4997190;28;20026;-51
2022/03/22 13:51:21;;;;;;;16.48;11.85;;;;;;;;;;4996715;28;20506;-49
2022/03/22 13:53:48;;;;;;;26.13;13.57;;;;;;;;;;4996506;28;20029;-51
2022/03/22 13:56:15;;;;;;;24.48;15.25;;;;;;;;;;4997137;28;20066;-50
2022/03/22 13:58:47;;;;;;;23.35;15.43;;;;;;;;;;4997469;28;20022;-49
2022/03/22 14:01:14;;;;;;;25.52;16.23;;;;;;;;;;4996694;28;20085;-47
2022/03/22 14:03:40;;;;;;;24.80;15.07;;;;;;;;;;4996751;28;20026;-50
2022/03/22 14:06:07;;;;;;;25.58;14.85;;;;;;;;;;4996655;28;20027;-52
2022/03/22 14:08:34;;;;;;;18.15;12.45;;;;;;;;;;4996833;28;20069;-50
2022/03/22 14:11:00;;;;;;;21.33;12.10;;;;;;;;;;4996769;28;20471;-51
2022/03/22 14:13:34;;;;;;;22.88;15.50;;;;;;;;;;4996071;28;20052;-48
2022/03/22 14:16:00;;;;;;;18.90;12.23;;;;;;;;;;4996139;28;20121;-48
2022/03/22 14:18:26;;;;;;;16.27;12.82;;;;;;;;;;4996556;28;20068;-53
2022/03/22 14:20:53;;;;;;;21.80;13.25;;;;;;;;;;4996371;28;20096;-51
2022/03/22 14:23:20;;;;;;;17.85;12.82;;;;;;;;;;4996190;28;20037;-51
2022/03/22 14:25:46;;;;;;;20.85;13.95;;;;;;;;;;4996682;28;20375;-52
2022/03/22 14:28:13;;;;;;;21.40;13.15;;;;;;;;;;4996189;28;20415;-50
2022/03/22 14:30:39;;;;;;;23.02;15.00;;;;;;;;;;4996316;28;20125;-52
2022/03/22 14:33:08;;;;;;;21.65;14.50;;;;;;;;;;4996324;28;20439;-51
2022/03/22 14:38:20;;;;;;;25.42;14.30;;;;;;;;;;4996329;28;20610;-49
2022/03/22 14:40:47;;;;;;;20.52;14.43;;;;;;;;;;4996112;28;20088;-51
2022/03/22 14:43:14;;;;;;;25.05;14.35;;;;;;;;;;4996412;28;20022;-49
2022/03/22 14:45:43;;;;;;;21.02;14.07;;;;;;;;;;4995899;28;20379;-50
2022/03/22 14:48:10;;;;;;;27.27;13.90;;;;;;;;;;4995756;28;20031;-51
2022/03/22 14:50:36;;;;;;;20.92;14.40;;;;;;;;;;4996865;28;20041;-50
2022/03/22 14:55:51;;;;;;;21.27;15.82;;;;;;;;;;4995828;28;20141;-50
2022/03/22 15:01:01;;;;;;;22.88;15.57;;;;;;;;;;4995643;28;20041;-47
2022/03/22 15:03:27;;;;;;;29.00;18.15;;;;;;;;;;4994768;28;20234;-50
2022/03/22 15:05:59;;;;;;;24.77;16.23;;;;;;;;;;4994558;28;20030;-45